createdAt,value
2018-10-06T00:01:44.906Z,14.30
2018-10-06T00:03:48.028Z,14.30
2018-10-06T00:05:51.672Z,14.30
2018-10-06T00:07:54.790Z,14.30
2018-10-06T00:09:58.450Z,14.30
2018-10-06T00:12:02.211Z,14.20
2018-10-06T00:14:05.911Z,14.20
2018-10-06T00:16:09.586Z,14.20
2018-10-06T00:18:13.974Z,14.20
2018-10-06T00:20:17.525Z,14.20
2018-10-06T00:22:21.207Z,14.20
2018-10-06T00:24:24.850Z,14.20
2018-10-06T00:26:27.973Z,14.20
2018-10-06T00:28:30.863Z,14.20
2018-10-06T00:30:33.860Z,14.20
2018-10-06T00:32:37.642Z,14.10
2018-10-06T00:34:40.534Z,14.10
2018-10-06T00:36:44.200Z,14.10
2018-10-06T00:38:47.113Z,14.10
2018-10-06T00:40:50.770Z,14.10
2018-10-06T00:42:53.664Z,14.10
2018-10-06T00:44:56.765Z,14.10
2018-10-06T00:47:01.215Z,14.00
2018-10-06T00:49:04.042Z,14.00
2018-10-06T00:51:07.354Z,14.00
2018-10-06T00:53:10.221Z,14.00
2018-10-06T00:55:13.166Z,14.00
2018-10-06T00:57:17.651Z,14.00
2018-10-06T00:59:21.299Z,13.90
2018-10-06T01:01:24.201Z,13.90
2018-10-06T01:03:27.198Z,13.90
2018-10-06T01:05:30.186Z,13.90
2018-10-06T01:07:33.900Z,13.90
2018-10-06T01:09:37.738Z,13.90
2018-10-06T01:11:40.658Z,13.90
2018-10-06T01:13:43.594Z,13.90
2018-10-06T01:15:47.310Z,13.90
2018-10-06T01:17:50.230Z,13.80
2018-10-06T01:19:53.251Z,13.80
2018-10-06T01:21:56.236Z,13.80
2018-10-06T01:23:59.166Z,13.80
2018-10-06T01:26:02.117Z,13.80
2018-10-06T01:28:05.946Z,13.80
2018-10-06T01:30:08.888Z,13.80
2018-10-06T01:32:12.339Z,13.80
2018-10-06T01:34:15.339Z,13.70
2018-10-06T01:36:18.259Z,13.70
2018-10-06T01:38:21.786Z,13.70
2018-10-06T01:40:24.754Z,13.70
2018-10-06T01:42:27.681Z,13.70
2018-10-06T01:44:31.418Z,13.70
2018-10-06T01:46:35.143Z,13.70
2018-10-06T01:48:38.084Z,13.70
2018-10-06T01:50:41.175Z,13.70
2018-10-06T01:52:44.994Z,13.60
2018-10-06T01:54:47.918Z,13.60
2018-10-06T01:56:50.844Z,13.60
2018-10-06T01:58:54.027Z,13.70
2018-10-06T02:00:57.829Z,13.60
2018-10-06T02:03:01.535Z,13.60
2018-10-06T02:05:05.242Z,13.60
2018-10-06T02:07:08.170Z,13.60
2018-10-06T02:09:11.197Z,13.60
2018-10-06T02:11:14.918Z,13.50
2018-10-06T02:13:17.835Z,13.50
2018-10-06T02:15:20.768Z,13.50
2018-10-06T02:17:23.866Z,13.50
2018-10-06T02:19:26.786Z,13.50
2018-10-06T02:21:29.722Z,13.50
2018-10-06T02:23:32.805Z,13.50
2018-10-06T02:25:35.745Z,13.50
2018-10-06T02:27:38.673Z,13.50
2018-10-06T02:29:42.459Z,13.50
2018-10-06T02:31:46.164Z,13.50
2018-10-06T02:33:49.094Z,13.40
2018-10-06T02:35:52.046Z,13.50
2018-10-06T02:37:54.966Z,13.50
2018-10-06T02:39:57.910Z,13.40
2018-10-06T02:42:00.889Z,13.40
2018-10-06T02:44:03.818Z,13.40
2018-10-06T02:46:06.743Z,13.40
2018-10-06T02:48:09.821Z,13.40
2018-10-06T02:50:13.510Z,13.40
2018-10-06T02:52:17.199Z,13.40
2018-10-06T02:54:21.670Z,13.30
2018-10-06T02:56:24.600Z,13.40
2018-10-06T02:58:27.521Z,13.40
2018-10-06T03:00:30.586Z,13.40
2018-10-06T03:02:34.386Z,13.40
2018-10-06T03:04:38.191Z,13.40
2018-10-06T03:06:41.914Z,13.40
2018-10-06T03:08:45.690Z,13.40
2018-10-06T03:10:49.367Z,13.30
2018-10-06T03:12:53.192Z,13.40
2018-10-06T03:14:56.886Z,13.30
2018-10-06T03:17:00.573Z,13.30
2018-10-06T03:19:04.306Z,13.30
2018-10-06T03:21:07.231Z,13.30
2018-10-06T03:23:10.178Z,13.30
2018-10-06T03:25:13.241Z,13.30
2018-10-06T03:27:16.939Z,13.30
2018-10-06T03:29:20.629Z,13.30
2018-10-06T03:31:24.369Z,13.20
2018-10-06T03:33:27.300Z,13.20
2018-10-06T03:35:31.961Z,13.20
2018-10-06T03:37:34.886Z,13.20
2018-10-06T03:39:37.814Z,13.20
2018-10-06T03:41:40.776Z,13.20
2018-10-06T03:43:45.210Z,13.10
2018-10-06T03:45:48.910Z,13.20
2018-10-06T03:47:52.626Z,13.10
2018-10-06T03:49:55.566Z,13.10
2018-10-06T03:51:58.580Z,13.10
2018-10-06T03:54:01.736Z,13.10
2018-10-06T03:56:04.619Z,13.10
2018-10-06T03:58:08.345Z,13.10
2018-10-06T04:00:12.098Z,13.10
2018-10-06T04:02:15.041Z,13.10
2018-10-06T04:04:17.982Z,13.10
2018-10-06T04:06:20.951Z,13.10
2018-10-06T04:08:23.907Z,13.10
2018-10-06T04:10:26.858Z,13.10
2018-10-06T04:12:30.596Z,13.10
2018-10-06T04:14:33.527Z,13.10
2018-10-06T04:16:37.218Z,13.10
2018-10-06T04:18:41.043Z,13.10
2018-10-06T04:20:44.758Z,13.10
2018-10-06T04:22:47.842Z,13.00
2018-10-06T04:24:50.762Z,13.10
2018-10-06T04:26:53.706Z,13.00
2018-10-06T04:28:56.806Z,13.10
2018-10-06T04:30:59.825Z,13.10
2018-10-06T04:33:02.754Z,13.00
2018-10-06T04:35:05.707Z,13.00
2018-10-06T04:37:08.638Z,13.00
2018-10-06T04:39:11.563Z,13.00
2018-10-06T04:41:14.710Z,13.00
2018-10-06T04:43:17.631Z,13.00
2018-10-06T04:45:20.555Z,13.00
2018-10-06T04:47:23.506Z,13.00
2018-10-06T04:49:27.325Z,13.00
2018-10-06T04:51:31.014Z,13.00
2018-10-06T04:53:34.741Z,13.00
2018-10-06T04:55:37.667Z,12.90
2018-10-06T04:57:40.688Z,12.90
2018-10-06T04:59:44.401Z,12.90
2018-10-06T05:01:47.330Z,12.90
2018-10-06T05:03:50.257Z,12.90
2018-10-06T05:05:53.999Z,12.90
2018-10-06T05:07:56.925Z,12.90
2018-10-06T05:10:00.614Z,12.90
2018-10-06T05:12:03.575Z,12.80
2018-10-06T05:14:06.498Z,12.80
2018-10-06T05:16:09.435Z,12.80
2018-10-06T05:18:12.418Z,12.80
2018-10-06T05:20:15.448Z,12.80
2018-10-06T05:22:19.250Z,12.80
2018-10-06T05:24:22.557Z,12.80
2018-10-06T05:26:25.489Z,12.80
2018-10-06T05:28:29.939Z,12.70
2018-10-06T05:30:33.742Z,12.70
2018-10-06T05:32:37.429Z,12.70
2018-10-06T05:34:41.114Z,12.70
2018-10-06T05:36:44.114Z,12.70
2018-10-06T05:38:47.806Z,12.70
2018-10-06T05:40:51.542Z,12.70
2018-10-06T05:42:54.610Z,12.70
2018-10-06T05:44:57.557Z,12.70
2018-10-06T05:47:00.487Z,12.70
2018-10-06T05:49:03.560Z,12.70
2018-10-06T05:51:07.362Z,12.70
2018-10-06T05:53:11.042Z,12.70
2018-10-06T05:55:14.011Z,12.70
2018-10-06T05:57:17.027Z,12.70
2018-10-06T05:59:20.833Z,12.70
2018-10-06T06:01:24.551Z,12.70
2018-10-06T06:03:27.490Z,12.70
2018-10-06T06:05:30.496Z,12.70
2018-10-06T06:07:34.298Z,12.60
2018-10-06T06:09:38.154Z,12.60
2018-10-06T06:11:41.188Z,12.60
2018-10-06T06:13:44.182Z,12.60
2018-10-06T06:15:47.166Z,12.60
2018-10-06T06:17:50.833Z,12.60
2018-10-06T06:19:54.572Z,12.60
2018-10-06T06:21:57.504Z,12.60
2018-10-06T06:24:00.477Z,12.60
2018-10-06T06:26:03.438Z,12.70
2018-10-06T06:28:06.362Z,12.70
2018-10-06T06:30:10.904Z,12.70
2018-10-06T06:32:14.661Z,12.70
2018-10-06T06:34:17.601Z,12.70
2018-10-06T06:36:20.552Z,12.70
2018-10-06T06:38:24.353Z,12.80
2018-10-06T06:40:27.330Z,12.70
2018-10-06T06:42:30.247Z,12.80
2018-10-06T06:44:33.451Z,12.80
2018-10-06T06:46:36.161Z,12.80
2018-10-06T06:48:39.181Z,12.90
2018-10-06T06:50:43.004Z,12.90
2018-10-06T06:52:45.929Z,12.90
2018-10-06T06:54:48.896Z,12.90
2018-10-06T06:56:52.052Z,13.00
2018-10-06T06:58:55.835Z,13.10
2018-10-06T07:00:59.542Z,13.10
2018-10-06T07:03:02.506Z,13.10
2018-10-06T07:05:06.206Z,13.20
2018-10-06T07:07:09.891Z,13.20
2018-10-06T07:09:12.862Z,13.20
2018-10-06T07:11:15.803Z,13.30
2018-10-06T07:13:18.753Z,13.30
2018-10-06T07:15:22.531Z,13.40
2018-10-06T07:17:25.468Z,13.40
2018-10-06T07:19:28.414Z,13.50
2018-10-06T07:21:32.354Z,13.60
2018-10-06T07:23:35.301Z,13.60
2018-10-06T07:25:39.044Z,13.70
2018-10-06T07:27:41.991Z,13.70
2018-10-06T07:29:45.806Z,13.80
2018-10-06T07:31:49.529Z,13.90
2018-10-06T07:33:52.592Z,13.80
2018-10-06T07:35:56.312Z,14.00
2018-10-06T07:38:00.074Z,14.00
2018-10-06T07:40:03.048Z,14.00
2018-10-06T07:42:06.061Z,14.00
2018-10-06T07:44:09.781Z,14.10
2018-10-06T07:46:12.761Z,14.10
2018-10-06T07:48:15.702Z,14.20
2018-10-06T07:50:18.631Z,14.20
2018-10-06T07:52:22.641Z,14.20
2018-10-06T07:54:28.239Z,14.30
2018-10-06T07:56:31.345Z,14.30
2018-10-06T07:58:35.102Z,14.40
2018-10-06T08:00:38.035Z,14.40
2018-10-06T08:02:40.969Z,14.50
2018-10-06T08:04:43.961Z,14.50
2018-10-06T08:06:46.895Z,14.50
2018-10-06T08:08:49.830Z,14.60
2018-10-06T08:10:53.573Z,14.70
2018-10-06T08:12:56.514Z,14.70
2018-10-06T08:14:59.480Z,14.70
2018-10-06T08:17:02.732Z,14.70
2018-10-06T08:19:05.708Z,14.80
2018-10-06T08:21:08.643Z,14.80
2018-10-06T08:23:11.605Z,14.90
2018-10-06T08:25:14.618Z,14.90
2018-10-06T08:27:19.288Z,15.00
2018-10-06T08:29:22.267Z,15.00
2018-10-06T08:31:25.219Z,15.10
2018-10-06T08:33:28.181Z,15.10
2018-10-06T08:35:31.199Z,15.20
2018-10-06T08:37:34.909Z,15.30
2018-10-06T08:39:37.884Z,15.30
2018-10-06T08:41:40.964Z,15.40
2018-10-06T08:43:44.751Z,15.50
2018-10-06T08:45:48.446Z,15.50
2018-10-06T08:47:52.205Z,15.60
2018-10-06T08:49:55.318Z,15.50
2018-10-06T08:51:58.201Z,15.60
2018-10-06T08:54:01.202Z,15.70
2018-10-06T08:56:04.925Z,15.80
2018-10-06T08:58:08.610Z,15.80
2018-10-06T09:00:11.604Z,15.80
2018-10-06T09:02:14.556Z,15.90
2018-10-06T09:04:17.492Z,15.90
2018-10-06T09:06:20.483Z,16.00
2018-10-06T09:08:23.424Z,16.10
2018-10-06T09:10:27.110Z,16.20
2018-10-06T09:12:30.230Z,16.20
2018-10-06T09:14:33.175Z,16.20
2018-10-06T09:16:36.193Z,16.30
2018-10-06T09:18:39.170Z,16.30
2018-10-06T09:20:42.097Z,16.40
2018-10-06T09:22:45.132Z,16.40
2018-10-06T09:24:48.966Z,16.50
2018-10-06T09:26:51.886Z,16.50
2018-10-06T09:28:54.820Z,16.70
2018-10-06T09:30:57.918Z,16.70
2018-10-06T09:33:00.858Z,16.70
2018-10-06T09:35:04.553Z,16.80
2018-10-06T09:37:08.388Z,16.90
2018-10-06T09:39:11.314Z,16.90
2018-10-06T09:41:14.335Z,16.90
2018-10-06T09:43:18.062Z,17.10
2018-10-06T09:45:20.987Z,17.10
2018-10-06T09:47:23.905Z,17.10
2018-10-06T09:49:26.859Z,17.20
2018-10-06T09:51:31.302Z,17.30
2018-10-06T09:53:35.155Z,17.40
2018-10-06T09:55:38.406Z,17.40
2018-10-06T09:57:41.336Z,17.40
2018-10-06T09:59:44.368Z,17.50
2018-10-06T10:02:02.174Z,17.60
2018-10-06T10:04:05.106Z,17.70
2018-10-06T10:06:08.886Z,17.80
2018-10-06T10:08:11.855Z,17.80
2018-10-06T10:10:15.558Z,18.00
2018-10-06T10:12:19.275Z,18.00
2018-10-06T10:14:22.194Z,18.00
2018-10-06T10:16:25.221Z,18.10
2018-10-06T10:18:29.106Z,18.30
2018-10-06T10:20:31.972Z,18.30
2018-10-06T10:22:34.920Z,18.40
2018-10-06T10:24:37.972Z,18.40
2018-10-06T10:26:41.647Z,18.50
2018-10-06T10:28:44.606Z,18.50
2018-10-06T10:30:48.591Z,18.70
2018-10-06T10:32:51.523Z,18.60
2018-10-06T10:34:55.943Z,18.80
2018-10-06T10:36:59.686Z,18.90
2018-10-06T10:39:03.171Z,18.90
2018-10-06T10:41:06.144Z,18.90
2018-10-06T10:43:09.860Z,19.00
2018-10-06T10:45:12.805Z,19.00
2018-10-06T10:47:15.746Z,19.10
2018-10-06T10:49:18.697Z,19.10
2018-10-06T10:51:22.384Z,19.10
2018-10-06T10:53:26.821Z,19.20
2018-10-06T10:55:30.120Z,19.20
2018-10-06T10:57:33.114Z,19.30
2018-10-06T10:59:36.802Z,19.40
2018-10-06T11:01:39.730Z,19.40
2018-10-06T11:03:42.706Z,19.50
2018-10-06T11:05:45.577Z,19.60
2018-10-06T11:07:48.726Z,19.70
2018-10-06T11:09:51.670Z,19.70
2018-10-06T11:11:54.603Z,19.80
2018-10-06T11:13:57.555Z,19.80
2018-10-06T11:16:01.256Z,19.90
2018-10-06T11:18:04.338Z,19.90
2018-10-06T11:20:08.261Z,19.90
2018-10-06T11:22:11.202Z,20.00
2018-10-06T11:24:14.118Z,20.00
2018-10-06T11:26:17.829Z,20.10
2018-10-06T11:28:20.734Z,20.10
2018-10-06T11:30:23.653Z,20.10
2018-10-06T11:32:26.617Z,20.20
2018-10-06T11:34:29.542Z,20.20
2018-10-06T11:36:33.338Z,20.30
2018-10-06T11:38:37.025Z,20.40
2018-10-06T11:40:40.872Z,20.40
2018-10-06T11:42:43.867Z,20.40
2018-10-06T11:44:46.791Z,20.40
2018-10-06T11:46:49.719Z,20.40
2018-10-06T11:48:52.666Z,20.50
2018-10-06T11:50:56.353Z,20.50
2018-10-06T11:53:00.067Z,20.60
2018-10-06T11:55:03.915Z,20.60
2018-10-06T11:57:06.859Z,20.60
2018-10-06T11:59:10.655Z,20.60
2018-10-06T12:01:13.628Z,20.60
2018-10-06T12:03:16.540Z,20.60
2018-10-06T12:05:20.306Z,20.70
2018-10-06T12:07:23.419Z,20.70
2018-10-06T12:09:27.122Z,20.70
2018-10-06T12:11:30.056Z,20.70
2018-10-06T12:13:33.010Z,20.70
2018-10-06T12:15:35.958Z,20.80
2018-10-06T12:17:38.886Z,20.80
2018-10-06T12:19:41.841Z,20.80
2018-10-06T12:21:44.769Z,20.90
2018-10-06T12:23:47.713Z,20.90
2018-10-06T12:25:50.822Z,21.00
2018-10-06T12:27:53.726Z,21.00
2018-10-06T12:29:56.681Z,21.10
2018-10-06T12:31:59.613Z,21.10
2018-10-06T12:34:03.292Z,21.20
2018-10-06T12:36:06.238Z,21.20
2018-10-06T12:38:09.161Z,21.20
2018-10-06T12:40:12.861Z,21.20
2018-10-06T12:42:16.745Z,21.30
2018-10-06T12:44:19.632Z,21.30
2018-10-06T12:46:22.562Z,21.30
2018-10-06T12:48:25.566Z,21.30
2018-10-06T12:50:29.333Z,21.40
2018-10-06T12:52:33.130Z,21.50
2018-10-06T12:54:36.933Z,21.50
2018-10-06T12:56:40.618Z,21.60
2018-10-06T12:58:43.522Z,21.60
2018-10-06T13:00:46.514Z,21.60
2018-10-06T13:02:49.446Z,21.70
2018-10-06T13:04:52.379Z,21.70
2018-10-06T13:06:55.474Z,21.80
2018-10-06T13:08:58.404Z,21.80
2018-10-06T13:11:01.324Z,21.80
2018-10-06T13:13:04.277Z,21.90
2018-10-06T13:15:07.210Z,21.90
2018-10-06T13:17:10.126Z,21.90
2018-10-06T13:19:13.073Z,22.00
2018-10-06T13:21:15.991Z,22.00
2018-10-06T13:23:20.538Z,22.00
2018-10-06T13:25:24.354Z,22.00
2018-10-06T13:27:27.275Z,22.00
2018-10-06T13:29:30.182Z,22.00
2018-10-06T13:31:33.128Z,22.10
2018-10-06T13:33:36.059Z,22.10
2018-10-06T13:35:39.065Z,22.10
2018-10-06T13:37:42.025Z,22.20
2018-10-06T13:39:46.451Z,22.20
2018-10-06T13:41:50.150Z,22.20
2018-10-06T13:43:53.133Z,22.20
2018-10-06T13:45:56.816Z,22.30
2018-10-06T13:48:00.512Z,22.30
2018-10-06T13:50:05.006Z,22.30
2018-10-06T13:52:08.036Z,22.40
2018-10-06T13:54:11.736Z,22.40
2018-10-06T13:56:15.453Z,22.40
2018-10-06T13:58:18.399Z,22.40
2018-10-06T14:00:21.318Z,22.40
2018-10-06T14:02:24.393Z,22.40
2018-10-06T14:04:28.074Z,22.40
2018-10-06T14:06:31.755Z,22.40
2018-10-06T14:08:34.702Z,22.40
2018-10-06T14:10:37.753Z,22.40
2018-10-06T14:12:41.551Z,22.40
2018-10-06T14:14:45.271Z,22.40
2018-10-06T14:16:48.197Z,22.40
2018-10-06T14:18:51.222Z,22.40
2018-10-06T14:20:55.025Z,22.40
2018-10-06T14:22:58.730Z,22.40
2018-10-06T14:25:02.417Z,22.40
2018-10-06T14:27:06.150Z,22.40
2018-10-06T14:29:09.067Z,22.40
2018-10-06T14:31:12.086Z,22.40
2018-10-06T14:33:15.813Z,22.40
2018-10-06T14:35:18.725Z,22.40
2018-10-06T14:37:21.650Z,22.40
2018-10-06T14:39:25.457Z,22.40
2018-10-06T14:41:29.152Z,22.40
2018-10-06T14:43:32.827Z,22.40
2018-10-06T14:45:35.795Z,22.40
2018-10-06T14:47:38.783Z,22.40
2018-10-06T14:49:41.713Z,22.40
2018-10-06T14:51:44.657Z,22.30
2018-10-06T14:53:47.591Z,22.30
2018-10-06T14:55:50.514Z,22.30
2018-10-06T14:57:55.099Z,22.30
2018-10-06T14:59:58.034Z,22.30
2018-10-06T15:02:01.719Z,22.30
2018-10-06T15:04:04.663Z,22.20
2018-10-06T15:06:07.593Z,22.30
2018-10-06T15:08:11.289Z,22.20
2018-10-06T15:10:14.268Z,22.20
2018-10-06T15:12:17.275Z,22.20
2018-10-06T15:14:20.974Z,22.20
2018-10-06T15:16:24.734Z,22.20
2018-10-06T15:18:27.652Z,22.20
2018-10-06T15:20:31.361Z,22.20
2018-10-06T15:22:35.277Z,22.10
2018-10-06T15:24:38.231Z,22.10
2018-10-06T15:26:41.916Z,22.10
2018-10-06T15:28:44.861Z,22.10
2018-10-06T15:30:47.793Z,22.10
2018-10-06T15:32:50.719Z,22.10
2018-10-06T15:34:54.626Z,22.10
2018-10-06T15:36:57.555Z,22.10
2018-10-06T15:39:00.475Z,22.10
2018-10-06T15:41:03.583Z,22.10
2018-10-06T15:43:06.509Z,22.00
2018-10-06T15:45:09.424Z,22.00
2018-10-06T15:47:13.439Z,22.00
2018-10-06T15:49:16.357Z,22.00
2018-10-06T15:51:19.284Z,22.00
2018-10-06T15:53:22.987Z,22.00
2018-10-06T15:55:25.930Z,21.90
2018-10-06T15:57:28.861Z,21.90
2018-10-06T15:59:31.963Z,21.90
2018-10-06T16:01:34.883Z,21.90
2018-10-06T16:03:37.813Z,21.90
2018-10-06T16:05:40.966Z,21.90
2018-10-06T16:07:43.899Z,21.80
2018-10-06T16:09:46.822Z,21.80
2018-10-06T16:11:49.798Z,21.80
2018-10-06T16:13:52.707Z,21.80
2018-10-06T16:15:56.510Z,21.70
2018-10-06T16:18:00.258Z,21.70
2018-10-06T16:20:03.294Z,21.70
2018-10-06T16:22:06.999Z,21.70
2018-10-06T16:24:10.730Z,21.60
2018-10-06T16:26:13.650Z,21.60
2018-10-06T16:28:18.077Z,21.60
2018-10-06T16:30:22.578Z,21.60
2018-10-06T16:32:25.503Z,21.60
2018-10-06T16:34:28.442Z,21.60
2018-10-06T16:36:31.391Z,21.60
2018-10-06T16:38:34.311Z,21.50
2018-10-06T16:40:37.243Z,21.50
2018-10-06T16:42:40.186Z,21.50
2018-10-06T16:44:43.110Z,21.50
2018-10-06T16:46:46.036Z,21.50
2018-10-06T16:48:50.522Z,21.40
2018-10-06T16:50:53.439Z,21.40
2018-10-06T16:52:57.150Z,21.40
2018-10-06T16:55:00.148Z,21.40
2018-10-06T16:57:03.830Z,21.40
2018-10-06T16:59:06.836Z,21.30
2018-10-06T17:01:10.558Z,21.30
2018-10-06T17:03:13.493Z,21.30
2018-10-06T17:05:17.922Z,21.30
2018-10-06T17:07:21.674Z,21.30
2018-10-06T17:09:24.596Z,21.30
2018-10-06T17:11:27.519Z,21.20
2018-10-06T17:13:30.481Z,21.30
2018-10-06T17:15:34.284Z,21.20
2018-10-06T17:17:37.973Z,21.20
2018-10-06T17:19:41.787Z,21.20
2018-10-06T17:21:45.473Z,21.20
2018-10-06T17:23:49.185Z,21.20
2018-10-06T17:25:52.909Z,21.20
2018-10-06T17:27:55.825Z,21.10
2018-10-06T17:29:58.851Z,21.10
2018-10-06T17:32:03.063Z,21.10
2018-10-06T17:34:06.066Z,21.10
2018-10-06T17:36:09.003Z,21.10
2018-10-06T17:38:13.582Z,21.00
2018-10-06T17:40:16.506Z,21.10
2018-10-06T17:42:19.545Z,21.00
2018-10-06T17:44:22.571Z,21.00
2018-10-06T17:46:25.458Z,21.00
2018-10-06T17:48:29.880Z,21.00
2018-10-06T17:50:32.880Z,21.00
2018-10-06T17:52:35.763Z,21.00
2018-10-06T17:54:39.445Z,20.90
2018-10-06T17:56:43.278Z,20.90
2018-10-06T17:58:46.217Z,20.90
2018-10-06T18:00:49.925Z,20.90
2018-10-06T18:02:52.974Z,20.90
2018-10-06T18:04:55.944Z,20.90
2018-10-06T18:06:59.612Z,20.90
2018-10-06T18:09:03.443Z,20.80
2018-10-06T18:11:06.363Z,20.80
2018-10-06T18:13:09.286Z,20.80
2018-10-06T18:15:12.238Z,20.80
2018-10-06T18:17:15.158Z,20.80
2018-10-06T18:19:18.098Z,20.80
2018-10-06T18:21:21.170Z,20.80
2018-10-06T18:23:24.091Z,20.80
2018-10-06T18:25:27.045Z,20.70
2018-10-06T18:27:31.516Z,20.70
2018-10-06T18:29:34.453Z,20.70
2018-10-06T18:31:38.153Z,20.70
2018-10-06T18:33:41.902Z,20.70
2018-10-06T18:35:44.826Z,20.70
2018-10-06T18:37:47.847Z,20.70
2018-10-06T18:39:52.147Z,20.70
2018-10-06T18:41:55.065Z,20.70
2018-10-06T18:43:58.023Z,20.60
2018-10-06T18:46:01.739Z,20.60
2018-10-06T18:48:04.654Z,20.60
2018-10-06T18:50:07.685Z,20.60
2018-10-06T18:52:12.122Z,20.60
2018-10-06T18:54:15.070Z,20.60
2018-10-06T18:56:18.764Z,20.50
2018-10-06T18:58:21.706Z,20.60
2018-10-06T19:00:24.634Z,20.50
2018-10-06T19:02:28.318Z,20.50
2018-10-06T19:04:31.281Z,20.50
2018-10-06T19:06:34.198Z,20.50
2018-10-06T19:08:37.231Z,20.40
2018-10-06T19:10:40.306Z,20.40
2018-10-06T19:12:43.221Z,20.40
2018-10-06T19:14:46.147Z,20.40
2018-10-06T19:16:49.862Z,20.30
2018-10-06T19:18:52.826Z,20.30
2018-10-06T19:20:56.514Z,20.30
2018-10-06T19:23:00.329Z,20.20
2018-10-06T19:25:04.028Z,20.20
2018-10-06T19:27:07.830Z,20.20
2018-10-06T19:29:11.548Z,20.20
2018-10-06T19:31:14.494Z,20.20
2018-10-06T19:33:18.189Z,20.20
2018-10-06T19:35:21.955Z,20.20
2018-10-06T19:37:24.866Z,20.10
2018-10-06T19:39:27.879Z,20.20
2018-10-06T19:41:31.610Z,20.10
2018-10-06T19:43:34.537Z,20.10
2018-10-06T19:45:37.648Z,20.10
2018-10-06T19:47:41.366Z,20.10
2018-10-06T19:49:44.288Z,20.10
2018-10-06T19:51:47.313Z,20.10
2018-10-06T19:53:51.026Z,20.00
2018-10-06T19:55:53.962Z,20.00
2018-10-06T19:57:56.896Z,20.00
2018-10-06T19:59:59.844Z,19.90
2018-10-06T20:02:02.762Z,19.90
2018-10-06T20:04:05.732Z,19.90
2018-10-06T20:06:09.442Z,19.80
2018-10-06T20:08:12.358Z,19.80
2018-10-06T20:10:15.274Z,19.80
2018-10-06T20:12:19.060Z,19.70
2018-10-06T20:14:21.934Z,19.70
2018-10-06T20:16:24.863Z,19.60
2018-10-06T20:18:28.600Z,19.60
2018-10-06T20:20:31.513Z,19.60
2018-10-06T20:22:34.434Z,19.50
2018-10-06T20:24:37.398Z,19.50
2018-10-06T20:26:41.161Z,19.40
2018-10-06T20:28:44.283Z,19.40
2018-10-06T20:30:48.106Z,19.40
2018-10-06T20:32:51.092Z,19.40
2018-10-06T20:34:54.790Z,19.30
2018-10-06T20:36:57.733Z,19.30
2018-10-06T20:39:02.272Z,19.30
2018-10-06T20:41:06.075Z,19.30
2018-10-06T20:43:09.894Z,19.20
2018-10-06T20:45:12.833Z,19.20
2018-10-06T20:47:17.379Z,19.10
2018-10-06T20:49:21.183Z,19.10
2018-10-06T20:51:24.867Z,19.10
2018-10-06T20:53:27.802Z,19.10
2018-10-06T20:55:30.848Z,19.00
2018-10-06T20:57:34.525Z,19.00
2018-10-06T20:59:38.964Z,18.90
2018-10-06T21:01:42.681Z,18.90
2018-10-06T21:03:45.601Z,19.00
2018-10-06T21:05:48.633Z,18.90
2018-10-06T21:07:51.603Z,18.90
2018-10-06T21:09:55.429Z,18.80
2018-10-06T21:11:58.846Z,18.80
2018-10-06T21:14:01.912Z,18.80
2018-10-06T21:16:04.846Z,18.80
2018-10-06T21:18:07.962Z,18.80
2018-10-06T21:20:11.718Z,18.80
2018-10-06T21:22:14.651Z,18.70
2018-10-06T21:24:17.582Z,18.70
2018-10-06T21:26:20.547Z,18.80
2018-10-06T21:28:23.596Z,18.70
2018-10-06T21:30:27.397Z,18.70
2018-10-06T21:32:31.118Z,18.60
2018-10-06T21:34:34.068Z,18.60
2018-10-06T21:36:37.770Z,18.60
2018-10-06T21:38:41.511Z,18.60
2018-10-06T21:40:44.433Z,18.60
2018-10-06T21:42:48.981Z,18.50
2018-10-06T21:44:52.721Z,18.50
2018-10-06T21:46:55.654Z,18.50
2018-10-06T21:48:59.341Z,18.50
2018-10-06T21:51:03.824Z,18.40
2018-10-06T21:53:06.742Z,18.40
2018-10-06T21:55:09.660Z,18.40
2018-10-06T21:57:12.602Z,18.40
2018-10-06T21:59:15.714Z,18.40
2018-10-06T22:01:19.438Z,18.30
2018-10-06T22:03:22.887Z,18.30
2018-10-06T22:05:25.893Z,18.30
2018-10-06T22:07:29.593Z,18.20
2018-10-06T22:09:33.622Z,18.20
2018-10-06T22:11:37.418Z,18.20
2018-10-06T22:13:40.346Z,18.20
2018-10-06T22:15:43.422Z,18.10
2018-10-06T22:17:46.460Z,18.10
2018-10-06T22:19:50.646Z,18.00
2018-10-06T22:21:54.398Z,18.00
2018-10-06T22:23:57.314Z,18.00
2018-10-06T22:26:00.230Z,17.90
2018-10-06T22:28:03.964Z,17.90
2018-10-06T22:30:07.017Z,17.90
2018-10-06T22:32:10.404Z,17.80
2018-10-06T22:34:14.126Z,17.80
2018-10-06T22:36:17.075Z,17.80
2018-10-06T22:38:20.749Z,17.70
2018-10-06T22:40:23.725Z,17.70
2018-10-06T22:42:26.755Z,17.70
2018-10-06T22:44:29.736Z,17.70
2018-10-06T22:46:33.462Z,17.60
2018-10-06T22:48:36.381Z,17.60
2018-10-06T22:50:39.308Z,17.50
2018-10-06T22:52:43.023Z,17.40
2018-10-06T22:54:45.938Z,17.40
2018-10-06T22:56:48.909Z,17.40
2018-10-06T22:58:51.966Z,17.40
2018-10-06T23:00:54.884Z,17.40
2018-10-06T23:02:57.814Z,17.30
2018-10-06T23:05:01.535Z,17.30
2018-10-06T23:07:04.466Z,17.30
2018-10-06T23:09:07.393Z,17.20
2018-10-06T23:11:10.346Z,17.20
2018-10-06T23:13:14.038Z,17.20
2018-10-06T23:15:17.734Z,17.20
2018-10-06T23:17:21.589Z,17.10
2018-10-06T23:19:24.527Z,17.10
2018-10-06T23:21:27.527Z,17.10
2018-10-06T23:23:31.234Z,17.10
2018-10-06T23:25:34.945Z,17.00
2018-10-06T23:27:37.863Z,17.00
2018-10-06T23:29:40.825Z,17.00
2018-10-06T23:31:43.746Z,16.90
2018-10-06T23:33:46.911Z,16.90
2018-10-06T23:35:49.852Z,16.90
2018-10-06T23:37:53.645Z,16.90
2018-10-06T23:39:57.345Z,16.90
2018-10-06T23:42:01.066Z,16.80
2018-10-06T23:44:03.991Z,16.80
2018-10-06T23:46:06.921Z,16.80
2018-10-06T23:48:09.892Z,16.80
2018-10-06T23:50:13.695Z,16.70
2018-10-06T23:52:17.499Z,16.70
2018-10-06T23:54:21.336Z,16.70
2018-10-06T23:56:24.257Z,16.70
2018-10-06T23:58:28.722Z,16.70
